createdAt,value
2019-01-16T00:01:12.682Z,1.80
2019-01-16T00:03:54.496Z,1.77
2019-01-16T00:06:33.564Z,1.40
2019-01-16T00:09:19.356Z,1.87
2019-01-16T00:11:49.371Z,1.90
2019-01-16T00:14:22.339Z,1.90
2019-01-16T00:17:01.408Z,1.57
2019-01-16T00:19:34.094Z,2.03
2019-01-16T00:22:18.919Z,2.00
2019-01-16T00:24:57.612Z,2.53
2019-01-16T00:27:30.312Z,1.00
2019-01-16T00:30:09.225Z,1.50
2019-01-16T00:32:45.153Z,1.73
2019-01-16T00:35:31.108Z,2.17
2019-01-16T00:38:18.209Z,2.23
2019-01-16T00:40:48.228Z,1.83
2019-01-16T00:43:34.137Z,1.90
2019-01-16T00:46:10.061Z,4.07
2019-01-16T00:48:40.079Z,3.00
2019-01-16T00:51:21.934Z,2.70
2019-01-16T00:54:03.989Z,2.20
2019-01-16T00:56:45.714Z,2.20
2019-01-16T00:59:30.555Z,2.30
2019-01-16T01:02:06.180Z,2.87
2019-01-16T01:04:48.024Z,3.07
2019-01-16T01:07:18.284Z,2.83
2019-01-16T01:09:53.950Z,4.23
2019-01-16T01:12:32.661Z,2.63
2019-01-16T01:15:05.372Z,3.00
2019-01-16T01:17:35.383Z,2.90
2019-01-16T01:20:22.881Z,4.30
2019-01-16T01:23:01.624Z,2.97
2019-01-16T01:25:31.631Z,3.07
2019-01-16T01:28:04.580Z,4.47
2019-01-16T01:30:34.591Z,5.03
2019-01-16T01:33:07.559Z,3.50
2019-01-16T01:35:37.560Z,3.40
2019-01-16T01:38:13.035Z,5.20
2019-01-16T01:40:51.924Z,4.50
2019-01-16T01:43:37.940Z,3.33
2019-01-16T01:46:10.897Z,5.47
2019-01-16T01:48:40.915Z,5.00
2019-01-16T01:51:16.895Z,3.30
2019-01-16T01:53:46.906Z,4.57
2019-01-16T01:56:32.884Z,4.53
2019-01-16T01:59:08.570Z,3.53
2019-01-16T02:01:44.235Z,5.83
2019-01-16T02:04:16.679Z,6.87
2019-01-16T02:06:46.680Z,4.67
2019-01-16T02:09:16.696Z,4.13
2019-01-16T02:11:49.943Z,3.93
2019-01-16T02:14:22.911Z,7.40
2019-01-16T02:16:52.925Z,4.50
2019-01-16T02:19:31.370Z,5.60
2019-01-16T02:22:13.475Z,3.67
2019-01-16T02:24:43.494Z,5.80
2019-01-16T02:27:28.377Z,4.60
2019-01-16T02:30:14.356Z,4.80
2019-01-16T02:33:02.503Z,5.00
2019-01-16T02:35:48.523Z,5.03
2019-01-16T02:38:21.226Z,3.87
2019-01-16T02:41:00.098Z,4.70
2019-01-16T02:43:36.050Z,4.63
2019-01-16T02:46:22.084Z,5.43
2019-01-16T02:49:00.895Z,6.00
2019-01-16T02:51:30.909Z,5.93
2019-01-16T02:54:03.567Z,5.73
2019-01-16T02:56:39.287Z,6.77
2019-01-16T02:59:18.015Z,4.40
2019-01-16T03:01:50.442Z,5.47
2019-01-16T03:04:20.443Z,5.90
2019-01-16T03:06:50.468Z,4.97
2019-01-16T03:09:29.177Z,6.50
2019-01-16T03:12:04.996Z,5.50
2019-01-16T03:14:37.632Z,5.23
2019-01-16T03:17:13.365Z,7.83
2019-01-16T03:19:43.610Z,6.10
2019-01-16T03:22:13.631Z,6.20
2019-01-16T03:25:01.514Z,7.57
2019-01-16T03:27:34.480Z,4.87
2019-01-16T03:30:10.600Z,4.73
2019-01-16T03:32:40.585Z,5.80
2019-01-16T03:35:13.243Z,6.77
2019-01-16T03:37:55.299Z,5.63
2019-01-16T03:40:25.304Z,4.87
2019-01-16T03:43:13.138Z,8.67
2019-01-16T03:45:49.148Z,6.40
2019-01-16T03:48:30.918Z,7.90
2019-01-16T03:51:12.764Z,6.90
2019-01-16T03:53:42.779Z,7.87
2019-01-16T03:56:13.780Z,5.47
2019-01-16T03:58:52.679Z,10.67
2019-01-16T04:01:22.683Z,7.20
2019-01-16T04:04:07.777Z,6.13
2019-01-16T04:06:37.792Z,9.83
2019-01-16T04:09:25.521Z,6.47
2019-01-16T04:11:55.531Z,6.47
2019-01-16T04:14:34.247Z,6.93
2019-01-16T04:17:09.917Z,7.57
2019-01-16T04:19:39.941Z,7.83
2019-01-16T04:22:26.207Z,7.97
2019-01-16T04:24:56.228Z,6.53
2019-01-16T04:27:26.239Z,5.43
2019-01-16T04:30:05.382Z,7.57
2019-01-16T04:32:41.430Z,6.07
2019-01-16T04:35:17.831Z,7.47
2019-01-16T04:37:50.584Z,8.33
2019-01-16T04:40:36.543Z,6.73
2019-01-16T04:43:06.612Z,6.57
2019-01-16T04:45:52.894Z,6.60
2019-01-16T04:48:22.910Z,10.43
2019-01-16T04:51:10.759Z,9.10
2019-01-16T04:53:51.107Z,7.43
2019-01-16T04:56:26.538Z,9.50
2019-01-16T04:59:08.253Z,9.23
2019-01-16T05:01:47.025Z,7.10
2019-01-16T05:04:23.141Z,6.70
2019-01-16T05:07:02.220Z,7.33
2019-01-16T05:09:35.306Z,6.93
2019-01-16T05:12:20.353Z,7.43
2019-01-16T05:14:52.907Z,8.13
2019-01-16T05:17:37.384Z,6.87
2019-01-16T05:20:19.405Z,5.80
2019-01-16T05:22:55.173Z,7.17
2019-01-16T05:25:40.011Z,7.03
2019-01-16T05:28:10.037Z,6.87
2019-01-16T05:30:40.036Z,5.80
2019-01-16T05:33:10.046Z,5.30
2019-01-16T05:35:42.722Z,6.03
2019-01-16T05:38:12.726Z,5.43
2019-01-16T05:41:00.300Z,8.83
2019-01-16T05:43:46.250Z,5.97
2019-01-16T05:46:18.890Z,6.23
2019-01-16T05:48:51.870Z,6.37
2019-01-16T05:51:39.747Z,7.53
2019-01-16T05:54:25.655Z,8.23
2019-01-16T05:57:01.428Z,6.63
2019-01-16T05:59:37.515Z,10.23
2019-01-16T06:02:23.298Z,9.40
2019-01-16T06:04:56.027Z,7.07
2019-01-16T06:07:31.783Z,8.97
2019-01-16T06:10:01.802Z,8.07
2019-01-16T06:12:34.463Z,9.60
2019-01-16T06:15:09.889Z,10.83
2019-01-16T06:17:39.896Z,11.20
2019-01-16T06:20:21.201Z,9.63
2019-01-16T06:23:03.274Z,8.50
2019-01-16T06:25:38.818Z,8.07
2019-01-16T06:28:17.621Z,6.07
2019-01-16T06:30:50.701Z,10.20
2019-01-16T06:33:29.454Z,6.90
2019-01-16T06:36:15.209Z,6.83
2019-01-16T06:39:00.064Z,6.50
2019-01-16T06:41:38.771Z,9.53
2019-01-16T06:44:11.605Z,6.93
2019-01-16T06:46:44.308Z,6.77
2019-01-16T06:49:17.284Z,9.73
2019-01-16T06:51:49.998Z,8.63
2019-01-16T06:54:20.002Z,8.47
2019-01-16T06:57:04.877Z,9.50
2019-01-16T06:59:34.894Z,8.40
2019-01-16T07:02:22.503Z,10.93
2019-01-16T07:05:01.057Z,12.20
2019-01-16T07:07:33.798Z,12.27
2019-01-16T07:10:03.850Z,9.87
2019-01-16T07:12:36.625Z,10.20
2019-01-16T07:15:20.656Z,12.70
2019-01-16T07:17:50.669Z,12.97
2019-01-16T07:20:20.687Z,14.40
2019-01-16T07:23:07.014Z,11.57
2019-01-16T07:25:52.978Z,11.37
2019-01-16T07:28:25.937Z,12.43
2019-01-16T07:30:56.051Z,15.63
2019-01-16T07:33:26.058Z,11.87
2019-01-16T07:36:06.058Z,12.60
2019-01-16T07:38:51.585Z,13.80
2019-01-16T07:41:36.796Z,13.63
2019-01-16T07:44:07.244Z,11.67
2019-01-16T07:46:55.331Z,14.80
2019-01-16T07:49:41.714Z,16.33
2019-01-16T07:52:23.606Z,14.27
2019-01-16T07:54:53.620Z,11.37
2019-01-16T07:57:23.638Z,17.13
2019-01-16T08:00:09.301Z,15.30
2019-01-16T08:02:45.371Z,15.23
2019-01-16T08:05:31.340Z,16.77
2019-01-16T08:08:19.443Z,14.53
2019-01-16T08:10:52.134Z,14.37
2019-01-16T08:13:28.057Z,16.83
2019-01-16T08:15:58.153Z,14.07
2019-01-16T08:18:40.279Z,16.43
2019-01-16T08:21:13.231Z,13.57
2019-01-16T08:23:52.054Z,16.83
2019-01-16T08:26:22.067Z,16.10
2019-01-16T08:28:54.571Z,15.00
2019-01-16T08:31:24.543Z,19.47
2019-01-16T08:33:57.258Z,18.23
2019-01-16T08:36:39.079Z,15.77
2019-01-16T08:39:10.043Z,16.13
2019-01-16T08:41:46.091Z,16.20
2019-01-16T08:44:20.089Z,17.67
2019-01-16T08:47:01.982Z,17.33
2019-01-16T08:49:35.350Z,12.60
2019-01-16T08:52:14.551Z,14.57
2019-01-16T08:55:00.971Z,17.87
2019-01-16T08:57:33.623Z,13.67
2019-01-16T09:00:18.442Z,15.17
2019-01-16T09:02:51.464Z,12.80
2019-01-16T09:05:37.214Z,15.40
2019-01-16T09:08:22.070Z,16.63
2019-01-16T09:10:55.209Z,15.70
2019-01-16T09:13:36.053Z,13.03
2019-01-16T09:16:15.976Z,11.67
2019-01-16T09:19:01.376Z,11.37
2019-01-16T09:21:40.224Z,12.67
2019-01-16T09:24:10.267Z,11.73
2019-01-16T09:26:40.258Z,14.27
2019-01-16T09:29:19.378Z,15.70
2019-01-16T09:32:09.203Z,12.20
2019-01-16T09:34:39.265Z,13.17
2019-01-16T09:37:24.208Z,15.63
2019-01-16T09:39:54.225Z,12.00
2019-01-16T09:42:24.259Z,11.93
2019-01-16T09:45:11.103Z,14.33
2019-01-16T09:47:44.880Z,11.73
2019-01-16T09:50:17.863Z,13.80
2019-01-16T09:52:53.964Z,14.10
2019-01-16T09:55:38.835Z,13.30
2019-01-16T09:58:14.530Z,17.90
2019-01-16T10:00:56.685Z,15.10
2019-01-16T10:03:33.520Z,13.30
2019-01-16T10:06:12.472Z,11.07
2019-01-16T10:08:42.487Z,12.50
2019-01-16T10:11:17.931Z,13.73
2019-01-16T10:13:56.676Z,15.53
2019-01-16T10:16:35.813Z,15.73
2019-01-16T10:19:05.979Z,9.83
2019-01-16T10:21:41.785Z,10.90
2019-01-16T10:24:28.536Z,13.80
2019-01-16T10:26:58.545Z,15.33
2019-01-16T10:29:45.727Z,12.47
2019-01-16T10:32:21.998Z,11.33
2019-01-16T10:34:51.995Z,8.87
2019-01-16T10:37:22.010Z,12.83
2019-01-16T10:40:00.447Z,12.53
2019-01-16T10:42:30.543Z,12.33
2019-01-16T10:45:00.642Z,10.97
2019-01-16T10:47:46.862Z,11.10
2019-01-16T10:50:35.174Z,14.40
2019-01-16T10:53:07.907Z,12.53
2019-01-16T10:55:40.637Z,14.33
2019-01-16T10:58:13.423Z,13.37
2019-01-16T11:00:55.474Z,14.47
2019-01-16T11:03:34.557Z,16.97
2019-01-16T11:06:19.585Z,16.60
2019-01-16T11:08:55.506Z,12.93
2019-01-16T11:11:31.297Z,10.37
2019-01-16T11:14:03.975Z,12.67
2019-01-16T11:16:36.405Z,11.63
2019-01-16T11:19:12.278Z,11.50
2019-01-16T11:21:42.303Z,12.23
2019-01-16T11:24:28.274Z,14.33
2019-01-16T11:27:04.026Z,10.90
2019-01-16T11:29:42.733Z,11.23
2019-01-16T11:32:15.648Z,13.70
2019-01-16T11:34:48.310Z,12.17
2019-01-16T11:37:21.054Z,10.43
2019-01-16T11:39:53.150Z,13.53
2019-01-16T11:42:32.274Z,10.90
2019-01-16T11:45:02.303Z,16.33
2019-01-16T11:47:44.736Z,10.37
2019-01-16T11:50:31.050Z,14.03
2019-01-16T11:53:06.519Z,11.97
2019-01-16T11:55:36.534Z,11.93
2019-01-16T11:58:06.734Z,11.70
2019-01-16T12:00:36.828Z,13.97
2019-01-16T12:03:06.851Z,14.17
2019-01-16T12:05:48.721Z,12.17
2019-01-16T12:08:21.704Z,11.83
2019-01-16T12:11:04.166Z,11.13
2019-01-16T12:13:34.183Z,20.77
2019-01-16T12:16:16.016Z,13.97
2019-01-16T12:19:06.962Z,11.20
2019-01-16T12:21:45.758Z,12.73
2019-01-16T12:24:18.582Z,9.77
2019-01-16T12:27:05.616Z,11.13
2019-01-16T12:29:35.696Z,16.13
2019-01-16T12:32:08.515Z,11.67
2019-01-16T12:34:56.739Z,12.47
2019-01-16T12:37:32.785Z,14.30
2019-01-16T12:40:08.732Z,9.23
2019-01-16T12:42:50.453Z,10.67
2019-01-16T12:45:32.264Z,8.77
2019-01-16T12:48:02.295Z,10.67
2019-01-16T12:50:34.988Z,12.00
2019-01-16T12:53:16.869Z,10.47
2019-01-16T12:55:50.088Z,12.03
2019-01-16T12:58:20.110Z,10.73
2019-01-16T13:00:52.604Z,13.17
2019-01-16T13:03:34.639Z,10.73
2019-01-16T13:06:20.658Z,10.87
2019-01-16T13:08:56.390Z,12.13
2019-01-16T13:11:34.271Z,8.67
2019-01-16T13:14:04.431Z,13.57
2019-01-16T13:16:34.466Z,10.63
2019-01-16T13:19:20.786Z,10.33
2019-01-16T13:21:59.609Z,11.67
2019-01-16T13:24:35.522Z,10.63
2019-01-16T13:27:08.559Z,9.00
2019-01-16T13:29:38.809Z,8.40
2019-01-16T13:32:08.894Z,11.27
2019-01-16T13:34:38.914Z,10.47
2019-01-16T13:37:11.793Z,8.93
2019-01-16T13:39:47.538Z,9.47
2019-01-16T13:42:29.398Z,10.40
2019-01-16T13:45:05.156Z,12.70
2019-01-16T13:47:51.478Z,9.67
2019-01-16T13:50:24.272Z,8.17
2019-01-16T13:53:10.246Z,17.67
2019-01-16T13:55:52.708Z,8.67
2019-01-16T13:58:25.751Z,11.83
2019-01-16T14:00:55.776Z,8.83
2019-01-16T14:03:25.782Z,9.13
2019-01-16T14:06:04.665Z,8.87
2019-01-16T14:08:50.405Z,9.80
2019-01-16T14:11:39.197Z,9.27
2019-01-16T14:14:26.033Z,8.57
2019-01-16T14:17:16.204Z,8.83
2019-01-16T14:20:02.237Z,8.00
2019-01-16T14:22:32.255Z,6.83
2019-01-16T14:25:18.217Z,12.17
2019-01-16T14:28:03.079Z,6.57
2019-01-16T14:30:33.175Z,8.47
2019-01-16T14:33:14.100Z,11.30
2019-01-16T14:35:44.207Z,12.33
2019-01-16T14:38:16.727Z,12.67
2019-01-16T14:40:50.135Z,10.77
2019-01-16T14:43:21.145Z,14.40
2019-01-16T14:45:51.236Z,10.60
2019-01-16T14:48:37.354Z,9.67
2019-01-16T14:51:11.155Z,12.50
2019-01-16T14:53:41.187Z,8.07
2019-01-16T14:56:14.217Z,9.10
2019-01-16T14:58:44.229Z,13.50
2019-01-16T15:01:14.235Z,8.80
2019-01-16T15:03:44.255Z,11.93
2019-01-16T15:06:14.265Z,8.50
2019-01-16T15:09:00.101Z,10.87
2019-01-16T15:11:36.385Z,9.70
2019-01-16T15:14:23.188Z,8.60
2019-01-16T15:17:01.711Z,10.50
2019-01-16T15:19:37.452Z,10.23
2019-01-16T15:22:14.013Z,8.13
2019-01-16T15:25:00.331Z,9.63
2019-01-16T15:27:35.792Z,10.03
2019-01-16T15:30:14.574Z,12.23
2019-01-16T15:32:44.656Z,11.97
2019-01-16T15:35:14.748Z,13.50
2019-01-16T15:37:47.185Z,7.30
2019-01-16T15:40:23.326Z,10.27
2019-01-16T15:42:59.087Z,8.80
2019-01-16T15:45:31.833Z,8.10
2019-01-16T15:48:04.612Z,11.43
2019-01-16T15:50:34.631Z,8.47
2019-01-16T15:53:10.310Z,10.17
2019-01-16T15:55:57.599Z,10.00
2019-01-16T15:58:33.460Z,13.00
2019-01-16T16:01:06.311Z,11.77
2019-01-16T16:03:52.481Z,10.83
2019-01-16T16:06:39.547Z,11.40
2019-01-16T16:09:18.891Z,13.53
2019-01-16T16:11:51.868Z,12.57
2019-01-16T16:14:24.624Z,13.63
2019-01-16T16:17:10.655Z,12.03
2019-01-16T16:19:56.647Z,14.60
2019-01-16T16:22:32.531Z,9.37
2019-01-16T16:25:08.281Z,12.63
2019-01-16T16:27:41.073Z,10.70
2019-01-16T16:30:32.279Z,15.17
2019-01-16T16:33:02.309Z,8.17
2019-01-16T16:35:44.358Z,11.87
2019-01-16T16:38:14.376Z,13.80
2019-01-16T16:40:50.098Z,14.23
2019-01-16T16:43:36.723Z,13.03
2019-01-16T16:46:06.727Z,16.40
2019-01-16T16:48:41.364Z,12.13
2019-01-16T16:51:14.256Z,11.47
2019-01-16T16:54:00.224Z,11.93
2019-01-16T16:56:31.147Z,15.27
2019-01-16T16:59:14.448Z,11.43
2019-01-16T17:02:00.535Z,12.70
2019-01-16T17:04:46.743Z,13.37
2019-01-16T17:07:25.423Z,11.00
2019-01-16T17:09:58.359Z,11.40
2019-01-16T17:12:43.506Z,12.10
2019-01-16T17:15:29.938Z,12.03
2019-01-16T17:18:00.016Z,10.63
2019-01-16T17:20:42.284Z,11.93
2019-01-16T17:23:14.955Z,12.83
2019-01-16T17:25:47.631Z,13.57
2019-01-16T17:28:23.705Z,9.80
2019-01-16T17:31:09.843Z,12.37
2019-01-16T17:33:46.843Z,10.63
2019-01-16T17:36:16.872Z,11.03
2019-01-16T17:39:02.897Z,13.60
2019-01-16T17:41:38.722Z,9.07
2019-01-16T17:44:08.738Z,11.53
2019-01-16T17:46:47.470Z,9.67
2019-01-16T17:49:17.484Z,12.47
2019-01-16T17:51:55.973Z,12.13
2019-01-16T17:54:37.691Z,12.63
2019-01-16T17:57:07.795Z,12.83
2019-01-16T17:59:53.497Z,12.70
2019-01-16T18:02:35.665Z,11.03
2019-01-16T18:05:06.923Z,9.13
2019-01-16T18:07:37.016Z,11.77
2019-01-16T18:10:25.061Z,9.27
2019-01-16T18:13:10.924Z,12.03
2019-01-16T18:15:43.721Z,12.23
2019-01-16T18:18:19.815Z,9.80
2019-01-16T18:20:52.779Z,13.47
2019-01-16T18:23:28.202Z,13.37
2019-01-16T18:26:16.306Z,10.77
2019-01-16T18:28:52.078Z,13.27
2019-01-16T18:31:22.091Z,11.27
2019-01-16T18:34:00.928Z,13.27
2019-01-16T18:36:36.805Z,16.47
2019-01-16T18:39:16.524Z,13.70
2019-01-16T18:41:52.020Z,13.33
2019-01-16T18:44:22.040Z,11.30
2019-01-16T18:47:07.133Z,13.83
2019-01-16T18:49:51.835Z,13.60
2019-01-16T18:52:21.855Z,14.53
2019-01-16T18:54:54.286Z,14.70
2019-01-16T18:57:27.246Z,14.40
2019-01-16T18:59:57.505Z,12.57
2019-01-16T19:02:39.322Z,11.87
2019-01-16T19:05:16.176Z,13.20
2019-01-16T19:08:02.509Z,13.80
2019-01-16T19:10:42.403Z,19.57
2019-01-16T19:13:21.244Z,14.17
2019-01-16T19:15:54.290Z,12.50
2019-01-16T19:18:26.729Z,13.67
2019-01-16T19:20:59.942Z,11.23
2019-01-16T19:23:44.612Z,11.90
2019-01-16T19:26:14.625Z,10.97
2019-01-16T19:28:53.423Z,10.80
2019-01-16T19:31:29.624Z,13.63
2019-01-16T19:33:59.635Z,10.43
2019-01-16T19:36:35.111Z,13.67
2019-01-16T19:39:09.457Z,12.40
2019-01-16T19:41:44.941Z,11.03
2019-01-16T19:44:17.692Z,11.93
2019-01-16T19:46:59.625Z,15.13
2019-01-16T19:49:32.472Z,12.00
2019-01-16T19:52:02.485Z,12.13
2019-01-16T19:54:32.501Z,15.80
2019-01-16T19:57:02.517Z,11.60
2019-01-16T19:59:32.769Z,12.93
2019-01-16T20:02:02.794Z,14.30
2019-01-16T20:04:32.837Z,10.47
2019-01-16T20:07:19.010Z,10.67
2019-01-16T20:09:49.034Z,12.50
2019-01-16T20:12:23.153Z,12.27
2019-01-16T20:14:56.140Z,14.10
2019-01-16T20:17:41.322Z,10.97
2019-01-16T20:20:28.934Z,13.67
2019-01-16T20:23:11.123Z,10.37
2019-01-16T20:26:07.820Z,11.67
2019-01-16T20:28:53.779Z,12.57
2019-01-16T20:31:35.773Z,11.37
2019-01-16T20:34:06.021Z,14.97
2019-01-16T20:36:52.280Z,16.90
2019-01-16T20:39:22.284Z,13.50
2019-01-16T20:41:52.300Z,11.60
2019-01-16T20:44:25.177Z,10.17
2019-01-16T20:47:03.830Z,12.83
2019-01-16T20:49:36.845Z,13.73
2019-01-16T20:52:09.951Z,12.77
2019-01-16T20:54:42.359Z,11.17
2019-01-16T20:57:12.380Z,12.17
2019-01-16T20:59:58.281Z,13.20
2019-01-16T21:02:44.190Z,12.77
2019-01-16T21:05:17.184Z,12.40
2019-01-16T21:07:53.087Z,11.50
2019-01-16T21:10:23.099Z,12.07
2019-01-16T21:13:04.098Z,11.30
2019-01-16T21:15:40.756Z,11.47
2019-01-16T21:18:11.764Z,16.20
2019-01-16T21:20:42.691Z,14.63
2019-01-16T21:23:25.618Z,13.07
2019-01-16T21:26:10.396Z,13.43
2019-01-16T21:28:50.142Z,13.33
2019-01-16T21:31:37.972Z,19.00
2019-01-16T21:34:08.346Z,15.87
2019-01-16T21:36:44.120Z,15.67
2019-01-16T21:39:22.879Z,14.03
2019-01-16T21:41:58.674Z,12.87
2019-01-16T21:44:31.640Z,15.83
2019-01-16T21:47:04.370Z,15.83
2019-01-16T21:49:52.233Z,18.77
2019-01-16T21:52:24.785Z,9.43
2019-01-16T21:54:58.494Z,13.60
2019-01-16T21:57:31.408Z,13.43
2019-01-16T22:00:04.366Z,11.67
2019-01-16T22:02:50.062Z,16.23
2019-01-16T22:05:32.306Z,15.17
2019-01-16T22:08:05.021Z,14.20
2019-01-16T22:10:35.034Z,13.50
2019-01-16T22:13:05.271Z,14.20
2019-01-16T22:15:35.355Z,12.00
2019-01-16T22:18:05.546Z,16.07
2019-01-16T22:20:38.002Z,13.53
2019-01-16T22:23:13.704Z,13.60
2019-01-16T22:25:46.442Z,14.27
2019-01-16T22:28:16.445Z,11.93
2019-01-16T22:30:46.449Z,15.47
2019-01-16T22:33:22.139Z,13.03
2019-01-16T22:35:52.161Z,14.10
2019-01-16T22:38:38.353Z,17.60
2019-01-16T22:41:23.264Z,14.17
2019-01-16T22:44:10.927Z,12.80
2019-01-16T22:46:49.748Z,12.37
2019-01-16T22:49:31.523Z,12.83
2019-01-16T22:52:07.258Z,12.83
2019-01-16T22:54:46.002Z,13.30
2019-01-16T22:57:16.017Z,14.93
2019-01-16T23:00:00.896Z,13.70
2019-01-16T23:02:30.905Z,15.83
2019-01-16T23:05:03.586Z,14.23
2019-01-16T23:07:33.598Z,14.23
2019-01-16T23:10:09.267Z,12.17
2019-01-16T23:12:48.231Z,15.07
2019-01-16T23:15:24.195Z,9.73
2019-01-16T23:18:10.153Z,13.67
2019-01-16T23:20:51.588Z,12.67
2019-01-16T23:23:27.265Z,12.27
2019-01-16T23:26:09.364Z,16.70
2019-01-16T23:28:55.325Z,12.20
2019-01-16T23:31:41.251Z,13.53
2019-01-16T23:34:11.248Z,13.20
2019-01-16T23:36:47.012Z,15.10
2019-01-16T23:39:22.722Z,13.20
2019-01-16T23:42:04.544Z,16.17
2019-01-16T23:44:40.622Z,13.90
2019-01-16T23:47:13.146Z,10.40
2019-01-16T23:49:54.773Z,10.50
2019-01-16T23:52:24.793Z,13.00
2019-01-16T23:55:06.678Z,12.63
2019-01-16T23:57:51.205Z,12.70
